ADDS METAR Data INFO
IDs: Format: Raw Decoded Include TAF

Data at: 1308 UTC 19 Jul 2018

KC07 191254Z AUTO 35006KT 10SM CLR 13/M05 A3058 RMK AO2
KC07 191248Z AUTO 34003KT 10SM CLR 13/M05 A3058 RMK AO2
KC07 191230Z AUTO 34005KT 10SM CLR 13/M06 A3058 RMK AO2
KC07 191212Z AUTO 33005KT 10SM CLR 13/M06 A3058 RMK AO2
KC07 191154Z AUTO 34006KT 10SM CLR 13/M06 A3057 RMK AO2
KC07 191148Z AUTO 34005KT 10SM CLR 13/M06 A3057 RMK AO2
KC07 191130Z AUTO 35005KT 10SM CLR 13/M06 A3057 RMK AO2
KC07 191112Z AUTO 36005KT 10SM CLR 13/M06 A3057 RMK AO2
KC07 191054Z AUTO 35005KT 10SM CLR 13/M06 A3057 RMK AO2
KC07 191048Z AUTO 36006KT 10SM CLR 13/M06 A3057 RMK AO2
KC07 191030Z AUTO 35005KT 10SM CLR 13/M06 A3057 RMK AO2
KC07 191012Z AUTO 35005KT 10SM CLR 13/M06 A3057 RMK AO2
KC07 190952Z AUTO 36006KT 10SM CLR 13/M06 A3057 RMK AO2
KC07 190506Z AUTO 34006KT 10SM SCT110 15/M05 A3060 RMK AO2
KC07 190453Z AUTO 36005KT 10SM CLR 15/M05 A3060 RMK AO2
KC07 190430Z AUTO 34005KT 10SM CLR 15/M05 A3060 RMK AO2
KC07 190412Z AUTO 34005KT 10SM CLR 15/M05 A3060 RMK AO2
KC07 190354Z AUTO 34005KT 10SM CLR 15/M05 A3060 RMK AO2
KC07 190348Z AUTO 36005KT 10SM CLR 15/M05 A3060 RMK AO2
KC07 190330Z AUTO 35005KT 10SM CLR 16/M05 A3059 RMK AO2
KC07 190312Z AUTO 34005KT 10SM CLR 16/M04 A3059 RMK AO2
KC07 190254Z AUTO 33005KT 10SM CLR 16/M03 A3059 RMK AO2
KC07 190248Z AUTO 33006KT 10SM SCT090 16/M03 A3059 RMK AO2
KC07 190230Z AUTO 34006KT 10SM SCT090 17/M03 A3057 RMK AO2
KC07 190212Z AUTO 32006KT 10SM CLR 17/M02 A3057 RMK AO2
KC07 190154Z AUTO 32006KT 10SM SCT095 18/M02 A3057 RMK AO2
KC07 190148Z AUTO 30005KT 10SM SCT095 18/M02 A3058 RMK AO2
KC07 190130Z AUTO 31005KT 10SM CLR 18/M02 A3058 RMK AO2
KC07 190112Z AUTO 29009G19KT 260V350 10SM CLR 19/M02 A3058 RMK AO2
KC07 190054Z AUTO 30009G19KT 270V340 10SM CLR 19/M02 A3057 RMK AO2
KC07 190048Z AUTO 30008G18KT 230V360 10SM CLR 20/M01 A3057 RMK AO2
KC07 190030Z AUTO 28008G18KT 240V340 10SM CLR 19/M01 A3057 RMK AO2
KC07 190012Z AUTO 30007G19KT 10SM CLR 19/M01 A3057 RMK AO2
KC07 182354Z AUTO 27006G19KT 10SM SCT095 20/M01 A3057 RMK AO2
KC07 182348Z AUTO 29009G20KT 250V330 10SM SCT095 20/M01 A3057 RMK AO2
KC07 182330Z AUTO 29009G25KT 260V330 10SM SCT095 19/M01 A3058 RMK AO2
KC07 182312Z AUTO 29008G19KT 230V330 10SM SCT095 21/00 A3057 RMK AO2
KC07 182254Z AUTO 27008G25KT 240V310 10SM CLR 21/M01 A3057 RMK AO2
KC07 182248Z AUTO 27009G22KT 230V310 10SM CLR 21/00 A3057 RMK AO2
KC07 182230Z AUTO 29011G19KT 240V010 10SM CLR 21/00 A3058 RMK AO2
KC07 182212Z AUTO 27011G26KT 230V300 10SM SCT085 21/00 A3058 RMK AO2
KC07 182154Z AUTO 27011G22KT 190V330 10SM SCT085 21/00 A3059 RMK AO2
KC07 182148Z AUTO 27007G19KT 230V320 10SM SCT085 20/00 A3059 RMK AO2
KC07 182130Z AUTO 28011G22KT 240V330 10SM SCT085 21/01 A3059 RMK AO2
KC07 182112Z AUTO 29011G19KT 230V360 10SM CLR 21/00 A3059 RMK AO2
KC07 182054Z AUTO 30009G21KT 240V020 10SM CLR 20/01 A3059 RMK AO2
KC07 182048Z AUTO 28009G21KT 260V340 10SM CLR 20/00 A3060 RMK AO2
KC07 182030Z AUTO 27008G20KT 210V040 10SM SCT080 21/01 A3060 RMK AO2
KC07 182012Z AUTO 29007G22KT 230V360 10SM SCT080 20/01 A3060 RMK AO2
KC07 181954Z AUTO 28015G24KT 240V310 10SM BKN070 20/01 A3059 RMK AO2
KC07 181948Z AUTO 28011G23KT 240V330 10SM SCT070 19/01 A3060 RMK AO2
KC07 181930Z AUTO 29008G19KT 210V350 10SM SCT070 19/02 A3060 RMK AO2
KC07 181912Z AUTO 28009G22KT 240V350 10SM CLR 19/01 A3060 RMK AO2
KC07 181854Z AUTO 28012G21KT 220V330 10SM CLR 19/01 A3060 RMK AO2
KC07 181848Z AUTO 29010G24KT 250V340 10SM CLR 19/02 A3060 RMK AO2
KC07 181830Z AUTO 29012G22KT 250V330 10SM CLR 18/02 A3060 RMK AO2
KC07 181812Z AUTO 29011G21KT 190V340 10SM CLR 17/03 A3061 RMK AO2
KC07 181754Z AUTO 30011G26KT 260V350 10SM CLR 18/03 A3061 RMK AO2
KC07 181748Z AUTO 26011G26KT 160V340 10SM CLR 18/03 A3061 RMK AO2
KC07 181730Z AUTO 29012G19KT 260V320 10SM CLR 17/05 A3061 RMK AO2
KC07 181712Z AUTO 29011G20KT 250V350 10SM CLR 17/05 A3061 RMK AO2
KC07 181654Z AUTO 27009G18KT 230V340 10SM CLR 16/04 A3062 RMK AO2
KC07 181648Z AUTO 28007G18KT 240V010 10SM CLR 16/05 A3061 RMK AO2
KC07 181630Z AUTO 28009G17KT 250V350 10SM CLR 15/04 A3061 RMK AO2
KC07 181612Z AUTO 28010G19KT 250V330 10SM CLR 15/03 A3062 RMK AO2
KC07 181552Z AUTO 27008G16KT 230V320 10SM CLR 15/03 A3061 RMK AO2
KC07 181530Z AUTO 27006G16KT 10SM CLR 14/03 A3061 RMK AO2
KC07 181512Z AUTO 27008G15KT 200V360 10SM CLR 14/03 A3062 RMK AO2
KC07 181454Z AUTO 27005KT 10SM CLR 13/03 A3062 RMK AO2
KC07 181448Z AUTO 29006KT 10SM CLR 13/02 A3062 RMK AO2
KC07 181430Z AUTO 27005KT 10SM CLR 13/03 A3062 RMK AO2
KC07 181412Z AUTO 28006KT 10SM CLR 12/03 A3061 RMK AO2
KC07 181354Z AUTO 27006KT 10SM CLR 11/03 A3061 RMK AO2
KC07 181348Z AUTO 27007KT 230V290 10SM CLR 11/03 A3060 RMK AO2
KC07 181330Z AUTO 27006KT 10SM CLR 11/02 A3060 RMK AO2
KC07 181312Z AUTO 28007KT 10SM CLR 11/02 A3060 RMK AO2
KC07 181254Z AUTO 27007KT 10SM SCT055 11/02 A3059 RMK AO2
KC07 181248Z AUTO 27006KT 10SM SCT055 11/02 A3059 RMK AO2
KC07 181230Z AUTO 27005KT 10SM SCT055 SCT070 11/02 A3059 RMK AO2
KC07 181212Z AUTO 27006KT 10SM SCT070 11/02 A3059 RMK AO2
KC07 181153Z AUTO 28006KT 10SM SCT070 11/02 A3059 RMK AO2
KC07 181130Z AUTO 28006G16KT 10SM BKN070 11/02 A3059 RMK AO2
KC07 181112Z AUTO 27005KT 10SM SCT060 BKN080 11/02 A3059 RMK AO2
KC07 181054Z AUTO 27005KT 10SM SCT070 SCT080 11/02 A3059 RMK AO2
KC07 181048Z AUTO 27005KT 10SM SCT065 11/02 A3059 RMK AO2 LTG DSNT NE
KC07 181030Z AUTO 26004KT 10SM SCT065 11/02 A3059 RMK AO2 LTG DSNT NE
KC07 181012Z AUTO 28004KT 10SM SCT060 SCT070 SCT080 11/02 A3059 RMK AO2
KC07 180954Z AUTO 27005KT 10SM SCT060 SCT080 11/03 A3059 RMK AO2
KC07 180948Z AUTO 27007KT 10SM SCT060 11/03 A3059 RMK AO2
KC07 180930Z AUTO 28006KT 10SM SCT060 BKN075 11/03 A3059 RMK AO2
KC07 180912Z AUTO 27005KT 10SM BKN060 BKN075 11/03 A3059 RMK AO2
KC07 180854Z AUTO 27007KT 10SM SCT060 SCT085 11/03 A3059 RMK AO2
KC07 180848Z AUTO 28006KT 10SM SCT085 11/03 A3059 RMK AO2
KC07 180830Z AUTO 29007KT 260V320 10SM SCT085 12/03 A3059 RMK AO2
KC07 180812Z AUTO 30006KT 10SM SCT065 BKN075 12/03 A3059 RMK AO2
KC07 180754Z AUTO 29008KT 250V330 10SM SCT065 12/03 A3059 RMK AO2 LTG DSNT NE
KC07 180748Z AUTO 29008KT 240V340 10SM SCT065 12/03 A3059 RMK AO2 LTG DSNT NE
KC07 180730Z AUTO 29007G18KT 250V350 10SM SCT065 12/03 A3059 RMK AO2
KC07 180712Z AUTO 30005KT 10SM SCT070 SCT080 SCT085 12/03 A3059 RMK AO2
KC07 180653Z AUTO 32006G16KT 270V360 10SM SCT070 SCT080 13/03 A3059 RMK AO2
KC07 180630Z AUTO 29009G17KT 240V010 10SM SCT080 13/03 A3058 RMK AO2
KC07 180612Z AUTO 30008G16KT 260V350 10SM SCT085 13/02 A3058 RMK AO2
KC07 180554Z AUTO 30008G15KT 240V020 10SM SCT085 13/02 A3058 RMK AO2
KC07 180548Z AUTO 33006G17KT 10SM SCT085 13/02 A3058 RMK AO2
KC07 180530Z AUTO 29008G15KT 240V010 10SM SCT085 13/02 A3058 RMK AO2 LTG DSNT NE
KC07 180512Z AUTO 29010G18KT 260V010 10SM SCT085 14/02 A3059 RMK AO2
KC07 180454Z AUTO 27009G17KT 240V330 10SM CLR 14/02 A3059 RMK AO2
KC07 180448Z AUTO 28008KT 220V350 10SM CLR 14/02 A3059 RMK AO2
KC07 180430Z AUTO 28007KT 240V010 10SM CLR 14/02 A3059 RMK AO2
KC07 180412Z AUTO 31005KT 10SM CLR 14/02 A3059 RMK AO2
KC07 180354Z AUTO 29006KT 10SM CLR 15/02 A3059 RMK AO2
KC07 180348Z AUTO 29006KT 10SM CLR 15/02 A3059 RMK AO2
KC07 180330Z AUTO 30007G16KT 230V010 10SM CLR 15/02 A3058 RMK AO2
KC07 180312Z AUTO 29008G17KT 260V340 10SM CLR 15/02 A3058 RMK AO2
KC07 180253Z AUTO 30008G18KT 260V360 10SM CLR 15/02 A3059 RMK AO2
KC07 180229Z AUTO 31007KT 270V360 10SM CLR 15/02 A3058 RMK AO2
KC07 180211Z AUTO 32005KT 10SM CLR 16/02 A3057 RMK AO2 LTG DSNT SW
KC07 180154Z AUTO 34005KT 10SM CLR 17/02 A3058 RMK AO2
KC07 180148Z AUTO 32005KT 10SM CLR 17/02 A3058 RMK AO2
KC07 180130Z AUTO 33005KT 10SM CLR 17/02 A3059 RMK AO2
KC07 180112Z AUTO 30009G18KT 270V340 10SM CLR 18/03 A3058 RMK AO2